Stokenchurch, United Kingdom
Current Conditions -  °F | °C
As of 11:50 AM on Monday 20 Oct 2014 (Local Time) from EGUB Reporting Station
Rain Showers Rain Showers  
Wind Chill: 59°   Ceiling: 2300
Heat Index: 59°   Visibility: 6mi
Dew Point: 50°   Wind: 15mph
Humidity: 72%   Direction: 210°SSW
Pressure: 30.03"   Gusts: NA
Location:  51.66°N, 0.9°W
Report Text: EGUB 201050Z 21013KT 9999 -SHRA BKN023 15/10 Q1017 WHT TEMPO FEW025 BLU
Loading
Personal Weather Stations






























Interactive Weather Map
Tropical Storm Tracking
New forecast layout! Learn more

10-Day Weather Forecast

Advertisements
Track Severe Weather on mobile